Time;durP1;ratioP1;P1;durP2;ratioP2;P2;SDS_P1;SDS_P2;PMS_P1;PMS_P2;Temp;Humidity;BMP_temperature;BMP_pressure;BME280_temperature;BME280_humidity;BME280_pressure;Samples;Min_cycle;Max_cycle;Signal;HPM_P1;HPM_P2
2023/04/17 00:01:42;;;;;;;31.00;25.07;;;10.40;1.00;;;;;;5023574;28;20195;-66
2023/04/17 00:04:09;;;;;;;31.57;24.60;;;10.40;1.00;;;;;;5028942;28;20703;-67
2023/04/17 00:06:38;;;;;;;29.93;24.00;;;10.40;1.00;;;;;;5043688;28;20223;-67
2023/04/17 00:09:05;;;;;;;31.87;24.33;;;10.40;1.00;;;;;;5025292;28;20192;-67
2023/04/17 00:11:32;;;;;;;31.03;24.97;;;10.30;1.00;;;;;;5029113;28;20234;-68
2023/04/17 00:14:00;;;;;;;30.73;24.37;;;10.30;1.00;;;;;;5043120;28;20199;-68
2023/04/17 00:16:27;;;;;;;27.80;23.50;;;10.30;1.00;;;;;;5037208;28;20191;-66
2023/04/17 00:18:54;;;;;;;30.40;24.20;;;10.20;1.00;;;;;;5048001;28;20278;-68
2023/04/17 00:21:21;;;;;;;28.70;23.80;;;10.20;1.00;;;;;;5029906;28;20743;-68
2023/04/17 00:23:48;;;;;;;28.90;24.03;;;10.20;1.00;;;;;;5017286;28;20733;-69
2023/04/17 00:26:15;;;;;;;31.33;24.50;;;10.20;1.00;;;;;;5024812;28;20216;-69
2023/04/17 00:28:42;;;;;;;29.47;23.93;;;10.20;1.00;;;;;;5030414;28;20188;-69
2023/04/17 00:31:09;;;;;;;29.40;24.43;;;10.10;1.00;;;;;;5024613;28;20196;-67
2023/04/17 00:33:36;;;;;;;29.00;24.00;;;10.10;1.00;;;;;;5029272;28;20217;-66
2023/04/17 00:36:04;;;;;;;31.67;23.67;;;10.00;1.00;;;;;;5041848;28;20195;-67
2023/04/17 00:38:31;;;;;;;31.00;24.23;;;10.00;1.00;;;;;;5008035;28;20243;-66
2023/04/17 00:40:58;;;;;;;27.70;24.00;;;10.00;1.00;;;;;;5015745;28;20203;-65
2023/04/17 00:43:25;;;;;;;30.57;23.57;;;10.00;1.00;;;;;;5040234;28;20282;-67
2023/04/17 00:45:53;;;;;;;28.73;24.73;;;10.00;1.00;;;;;;5040249;28;20211;-68
2023/04/17 00:48:22;;;;;;;30.47;23.53;;;9.90;1.00;;;;;;5022244;28;20214;-68
2023/04/17 00:50:50;;;;;;;31.60;23.80;;;9.90;1.00;;;;;;5044993;28;20188;-68
2023/04/17 00:53:17;;;;;;;31.47;24.13;;;9.90;1.00;;;;;;5043671;28;20206;-70
2023/04/17 00:55:47;;;;;;;27.90;23.10;;;9.90;1.00;;;;;;5015857;28;20227;-70
2023/04/17 00:58:14;;;;;;;29.47;23.37;;;9.80;1.00;;;;;;5046826;28;20199;-70
2023/04/17 01:00:41;;;;;;;25.90;22.20;;;9.80;1.00;;;;;;5024785;28;20188;-70
2023/04/17 01:03:09;;;;;;;28.93;23.13;;;9.80;1.00;;;;;;5046496;22;20223;-58
2023/04/17 01:05:37;;;;;;;29.97;23.23;;;9.80;1.00;;;;;;5042833;28;20251;-58
2023/04/17 01:08:04;;;;;;;30.93;23.20;;;9.70;1.00;;;;;;5043103;28;20302;-59
2023/04/17 01:10:31;;;;;;;28.93;23.20;;;9.70;1.00;;;;;;5043833;28;20201;-57
2023/04/17 01:13:05;;;;;;;26.93;22.03;;;9.70;1.00;;;;;;5047283;28;20207;-58
2023/04/17 01:15:34;;;;;;;27.63;21.50;;;9.70;1.00;;;;;;5045822;28;20234;-59
2023/04/17 01:18:02;;;;;;;27.57;22.20;;;9.60;1.00;;;;;;5024969;28;20206;-57
2023/04/17 01:20:29;;;;;;;30.87;23.40;;;9.60;1.00;;;;;;5042602;28;20210;-59
2023/04/17 01:22:58;;;;;;;29.10;22.30;;;9.60;1.00;;;;;;5049205;28;20230;-58
2023/04/17 01:25:26;;;;;;;26.87;21.20;;;9.60;1.00;;;;;;5042491;28;20196;-58
2023/04/17 01:27:53;;;;;;;26.70;22.30;;;9.60;1.00;;;;;;5024310;28;20204;-59
2023/04/17 01:30:20;;;;;;;28.70;21.47;;;9.50;1.00;;;;;;5056535;28;20277;-59
2023/04/17 01:33:01;;;;;;;25.50;21.00;;;9.50;1.00;;;;;;5060642;28;20637;-58
2023/04/17 01:35:28;;;;;;;26.63;22.80;;;9.50;1.00;;;;;;5023981;28;20270;-58
2023/04/17 01:37:55;;;;;;;29.10;22.43;;;9.50;1.00;;;;;;5042907;28;20282;-58
2023/04/17 01:40:22;;;;;;;29.80;22.63;;;9.50;1.00;;;;;;5029208;28;20616;-59
2023/04/17 01:42:50;;;;;;;30.30;21.97;;;9.50;1.00;;;;;;5043425;28;20538;-66
2023/04/17 01:45:17;;;;;;;28.57;22.40;;;9.50;1.00;;;;;;5045509;28;20385;-58
2023/04/17 01:47:44;;;;;;;28.90;22.80;;;9.50;1.00;;;;;;5044728;28;20681;-59
2023/04/17 01:50:11;;;;;;;28.57;21.87;;;9.50;1.00;;;;;;5044603;28;20211;-57
2023/04/17 01:52:38;;;;;;;28.03;22.87;;;9.50;1.00;;;;;;5042566;28;20281;-58
2023/04/17 01:55:06;;;;;;;26.03;22.23;;;9.50;1.00;;;;;;5044859;28;20203;-63
2023/04/17 01:57:33;;;;;;;28.90;21.80;;;9.50;1.00;;;;;;5046824;28;20204;-59
2023/04/17 02:00:00;;;;;;;26.17;21.67;;;9.50;1.00;;;;;;5034837;28;20315;-59
2023/04/17 02:02:27;;;;;;;29.67;23.80;;;9.50;1.00;;;;;;5041084;28;20878;-58
2023/04/17 02:04:54;;;;;;;33.33;23.77;;;9.50;1.00;;;;;;5069560;28;20653;-58
2023/04/17 02:07:21;;;;;;;29.47;23.33;;;9.50;1.00;;;;;;5068619;28;20713;-58
2023/04/17 02:09:47;;;;;;;29.40;23.30;;;9.40;1.00;;;;;;5062237;28;20618;-58
2023/04/17 02:12:15;;;;;;;28.77;24.10;;;9.40;1.00;;;;;;5069298;28;20257;-59
2023/04/17 02:14:42;;;;;;;30.53;24.73;;;9.40;1.00;;;;;;5074628;28;20258;-58
2023/04/17 02:17:09;;;;;;;34.67;25.57;;;9.40;1.00;;;;;;5069377;28;20191;-58
2023/04/17 02:19:36;;;;;;;31.77;25.47;;;9.40;1.00;;;;;;5069637;28;20191;-59
2023/04/17 02:22:03;;;;;;;37.30;29.27;;;9.50;1.00;;;;;;5052203;28;20205;-58
2023/04/17 02:24:30;;;;;;;31.13;25.60;;;9.40;1.00;;;;;;5065379;28;20234;-58
2023/04/17 02:26:59;;;;;;;30.10;25.03;;;9.40;1.00;;;;;;5061254;28;20199;-59
2023/04/17 02:29:26;;;;;;;34.13;26.30;;;9.40;1.00;;;;;;5073585;28;20312;-59
2023/04/17 02:31:53;;;;;;;32.27;26.23;;;9.40;1.00;;;;;;5064302;28;20194;-59
2023/04/17 02:34:20;;;;;;;34.00;26.10;;;9.40;1.00;;;;;;5060133;28;20308;-59
2023/04/17 02:36:49;;;;;;;35.53;26.60;;;9.40;1.00;;;;;;5059405;28;20183;-58
2023/04/17 02:39:18;;;;;;;30.67;25.53;;;9.40;1.00;;;;;;5059660;28;20289;-59
2023/04/17 02:41:45;;;;;;;36.20;27.33;;;9.40;1.00;;;;;;5069241;28;20193;-60
2023/04/17 02:44:12;;;;;;;33.37;27.27;;;9.40;1.00;;;;;;5065722;28;20684;-58
2023/04/17 02:46:39;;;;;;;32.27;26.17;;;9.40;1.00;;;;;;5068560;28;20214;-58
2023/04/17 02:49:08;;;;;;;32.60;26.97;;;9.30;1.00;;;;;;5064642;28;20187;-57
2023/04/17 02:51:35;;;;;;;35.67;26.90;;;9.30;1.00;;;;;;5063407;28;20625;-58
2023/04/17 02:54:02;;;;;;;32.90;26.73;;;9.30;1.00;;;;;;5067088;28;20191;-60
2023/04/17 02:56:29;;;;;;;36.13;27.70;;;9.40;1.00;;;;;;5049217;28;20621;-63
2023/04/17 02:58:56;;;;;;;33.90;26.80;;;9.40;1.00;;;;;;5066168;28;20249;-64
2023/04/17 03:01:23;;;;;;;31.90;26.40;;;9.40;1.00;;;;;;5058511;28;20721;-64
2023/04/17 03:03:51;;;;;;;33.77;26.07;;;9.30;1.00;;;;;;5061894;28;20238;-65
2023/04/17 03:06:18;;;;;;;31.97;26.27;;;9.30;1.00;;;;;;5082817;28;20211;-64
2023/04/17 03:08:45;;;;;;;35.37;27.83;;;9.30;1.00;;;;;;5064463;28;20206;-64
2023/04/17 03:11:12;;;;;;;31.37;26.73;;;9.30;1.00;;;;;;5068345;28;20695;-63
2023/04/17 03:13:39;;;;;;;34.57;26.53;;;9.30;1.00;;;;;;5077685;28;20198;-64
2023/04/17 03:16:06;;;;;;;35.77;26.57;;;9.30;1.00;;;;;;5066578;28;20273;-65
2023/04/17 03:18:39;;;;;;;34.83;27.53;;;9.20;1.00;;;;;;5065327;28;20226;-63
2023/04/17 03:21:07;;;;;;;34.20;25.17;;;9.20;1.00;;;;;;5063993;28;20244;-64
2023/04/17 03:23:34;;;;;;;35.70;27.63;;;9.30;1.00;;;;;;5054009;28;20211;-63
2023/04/17 03:26:01;;;;;;;33.20;27.93;;;9.30;1.00;;;;;;5058781;28;20284;-63
2023/04/17 03:28:31;;;;;;;36.97;27.53;;;9.30;1.00;;;;;;5067998;28;20559;-63
2023/04/17 03:30:58;;;;;;;32.93;27.50;;;9.30;1.00;;;;;;5059399;28;20266;-64
2023/04/17 03:33:26;;;;;;;34.10;27.77;;;9.30;1.00;;;;;;5069562;28;20179;-63
2023/04/17 03:35:55;;;;;;;36.87;26.33;;;9.30;1.00;;;;;;5064454;28;20198;-63
2023/04/17 03:38:22;;;;;;;34.33;26.47;;;9.30;1.00;;;;;;5064892;28;20386;-62
2023/04/17 03:40:49;;;;;;;30.63;25.50;;;9.30;1.00;;;;;;5064834;28;20514;-66
2023/04/17 03:43:17;;;;;;;31.10;26.40;;;9.20;1.00;;;;;;5069076;28;20246;-66
2023/04/17 03:45:44;;;;;;;33.50;27.60;;;9.20;1.00;;;;;;5064869;28;20203;-66
2023/04/17 03:48:12;;;;;;;35.03;28.70;;;9.20;1.00;;;;;;5068361;28;20187;-66
2023/04/17 03:50:39;;;;;;;37.03;26.17;;;9.20;1.00;;;;;;5063547;28;20245;-65
2023/04/17 03:53:06;;;;;;;37.80;27.33;;;9.20;1.00;;;;;;5063756;28;20191;-64
2023/04/17 03:55:33;;;;;;;38.97;28.10;;;9.20;1.00;;;;;;5053629;28;20751;-66
2023/04/17 03:58:00;;;;;;;32.47;26.63;;;9.20;1.00;;;;;;5066218;28;20563;-66
2023/04/17 04:00:30;;;;;;;35.40;27.53;;;9.20;1.00;;;;;;5063865;28;20191;-66
2023/04/17 04:03:03;;;;;;;36.40;27.10;;;9.20;1.00;;;;;;5063129;28;20885;-66
2023/04/17 04:05:38;;;;;;;35.07;27.07;;;9.10;1.00;;;;;;5065209;28;20230;-65
2023/04/17 04:08:07;;;;;;;34.87;27.30;;;9.10;1.00;;;;;;5061162;28;20199;-66
2023/04/17 04:10:43;;;;;;;38.17;26.83;;;9.10;1.00;;;;;;5056508;28;20202;-65
2023/04/17 04:13:14;;;;;;;32.87;25.73;;;9.10;1.00;;;;;;5064337;28;20622;-65
2023/04/17 04:15:46;;;;;;;35.07;27.60;;;9.10;1.00;;;;;;5059994;28;20207;-66
2023/04/17 04:18:16;;;;;;;32.93;26.63;;;9.10;1.00;;;;;;5062118;28;20199;-66
2023/04/17 04:20:43;;;;;;;34.60;27.00;;;9.10;1.00;;;;;;5072058;28;20294;-63
2023/04/17 04:23:19;;;;;;;32.53;26.20;;;9.00;1.00;;;;;;5064259;28;20289;-65
2023/04/17 04:25:48;;;;;;;34.60;27.67;;;9.00;1.00;;;;;;5058662;28;20219;-65
2023/04/17 04:28:32;;;;;;;32.87;27.70;;;9.00;1.00;;;;;;5058825;28;21002;-64
2023/04/17 04:31:01;;;;;;;34.13;27.70;;;9.10;1.00;;;;;;5066046;28;20427;-62
2023/04/17 04:33:34;;;;;;;35.80;27.63;;;9.00;1.00;;;;;;5069223;28;20344;-64
2023/04/17 04:36:01;;;;;;;35.47;27.53;;;9.10;1.00;;;;;;5060030;28;20195;-64
2023/04/17 04:38:31;;;;;;;34.87;27.47;;;9.10;1.00;;;;;;5077013;28;20214;-67
2023/04/17 04:41:09;;;;;;;34.50;27.57;;;9.10;1.00;;;;;;5062297;28;20206;-65
2023/04/17 04:43:37;;;;;;;33.37;28.33;;;9.10;1.00;;;;;;5054004;28;20672;-64
2023/04/17 04:46:06;;;;;;;34.17;27.13;;;9.00;1.00;;;;;;5068094;28;20303;-64
2023/04/17 04:48:38;;;;;;;33.90;25.77;;;9.00;1.00;;;;;;5060737;28;20501;-65
2023/04/17 04:51:08;;;;;;;36.80;27.93;;;9.10;1.00;;;;;;5048243;28;20611;-64
2023/04/17 04:53:37;;;;;;;34.67;27.33;;;9.00;1.00;;;;;;5062401;28;20202;-64
2023/04/17 04:56:04;;;;;;;38.63;30.27;;;9.10;1.00;;;;;;5057464;28;20396;-66
2023/04/17 04:58:33;;;;;;;34.70;27.27;;;9.10;1.00;;;;;;5046653;28;20604;-65
2023/04/17 05:01:01;;;;;;;39.47;27.30;;;9.10;1.00;;;;;;5060467;28;20298;-61
2023/04/17 05:03:35;;;;;;;36.97;26.90;;;9.10;1.00;;;;;;5053458;28;20253;-58
2023/04/17 05:06:04;;;;;;;31.07;26.40;;;9.10;1.00;;;;;;5063307;28;20191;-60
2023/04/17 05:08:43;;;;;;;32.37;25.83;;;9.20;1.00;;;;;;5071822;28;20606;-58
2023/04/17 05:11:14;;;;;;;33.60;27.27;;;9.20;1.00;;;;;;5067143;28;20198;-59
2023/04/17 05:13:41;;;;;;;36.57;25.40;;;9.10;1.00;;;;;;5057148;28;20198;-58
2023/04/17 05:16:16;;;;;;;33.33;26.10;;;9.10;1.00;;;;;;5067330;28;20222;-58
2023/04/17 05:18:46;;;;;;;34.40;26.67;;;9.20;1.00;;;;;;5064872;28;20233;-58
2023/04/17 05:21:16;;;;;;;35.87;26.53;;;9.20;1.00;;;;;;5059866;28;20191;-59
2023/04/17 05:23:45;;;;;;;32.87;26.50;;;9.20;1.00;;;;;;5059330;28;20219;-59
2023/04/17 05:26:12;;;;;;;30.17;25.27;;;9.20;1.00;;;;;;5065892;28;20200;-66
2023/04/17 05:28:39;;;;;;;34.27;25.97;;;9.20;1.00;;;;;;5071486;28;20282;-67
2023/04/17 05:31:07;;;;;;;35.30;25.93;;;9.20;1.00;;;;;;5060144;28;20183;-60
2023/04/17 05:33:38;;;;;;;33.93;26.40;;;9.20;1.00;;;;;;5038433;28;20213;-59
2023/04/17 05:36:06;;;;;;;30.73;26.43;;;9.20;1.00;;;;;;5074071;28;20219;-62
2023/04/17 05:38:36;;;;;;;34.13;26.27;;;9.30;1.00;;;;;;5064062;28;20199;-60
2023/04/17 05:41:07;;;;;;;32.57;25.23;;;9.40;1.00;;;;;;5061274;28;20737;-59
2023/04/17 05:43:36;;;;;;;29.37;25.60;;;9.40;1.00;;;;;;5071473;28;20188;-61
2023/04/17 05:46:03;;;;;;;30.53;24.60;;;9.50;1.00;;;;;;5054170;28;20524;-59
2023/04/17 05:48:30;;;;;;;31.00;24.83;;;9.50;1.00;;;;;;5047692;28;20601;-59
2023/04/17 05:50:57;;;;;;;28.13;24.57;;;9.50;1.00;;;;;;5077300;28;20225;-60
2023/04/17 05:53:24;;;;;;;32.10;25.10;;;9.50;1.00;;;;;;5068930;28;20221;-60
2023/04/17 05:55:55;;;;;;;34.90;25.47;;;9.60;1.00;;;;;;5075328;28;20685;-59
2023/04/17 05:58:23;;;;;;;29.67;23.60;;;9.60;1.00;;;;;;5058523;28;20198;-64
2023/04/17 06:00:54;;;;;;;29.87;24.27;;;9.70;1.00;;;;;;5077247;28;20206;-67
2023/04/17 06:03:22;;;;;;;32.20;23.50;;;9.70;1.00;;;;;;5042183;28;20238;-59
2023/04/17 06:05:56;;;;;;;31.57;23.93;;;9.80;1.00;;;;;;5063449;28;20198;-60
2023/04/17 06:08:24;;;;;;;26.50;21.83;;;9.80;1.00;;;;;;5057663;28;20325;-64
2023/04/17 06:10:51;;;;;;;27.47;22.73;;;9.90;1.00;;;;;;5063168;28;20294;-64
2023/04/17 06:13:19;;;;;;;28.73;22.97;;;9.90;1.00;;;;;;5065426;28;20195;-65
2023/04/17 06:15:50;;;;;;;27.97;22.43;;;9.90;1.00;;;;;;5073426;28;20195;-60
2023/04/17 06:18:17;;;;;;;30.23;22.57;;;9.80;1.00;;;;;;5065893;28;20199;-60
2023/04/17 06:20:45;;;;;;;29.27;23.83;;;9.80;1.00;;;;;;5044539;28;20195;-60
2023/04/17 06:23:12;;;;;;;33.07;23.90;;;9.80;1.00;;;;;;5081111;28;20794;-60
2023/04/17 06:25:39;;;;;;;30.83;22.80;;;9.90;1.00;;;;;;5062391;28;20191;-62
2023/04/17 06:28:06;;;;;;;31.53;22.43;;;10.00;1.00;;;;;;5067384;28;20219;-61
2023/04/17 06:30:33;;;;;;;30.00;22.60;;;10.00;1.00;;;;;;5061853;28;20202;-59
2023/04/17 06:33:01;;;;;;;29.33;22.30;;;10.00;1.00;;;;;;5062317;28;20221;-58
2023/04/17 06:35:29;;;;;;;28.90;20.83;;;10.10;1.00;;;;;;5062526;28;20199;-59
2023/04/17 06:38:03;;;;;;;31.50;22.67;;;10.10;1.00;;;;;;5073352;28;20205;-60
2023/04/17 06:40:32;;;;;;;28.53;21.63;;;10.10;1.00;;;;;;5065227;28;20739;-59
2023/04/17 06:42:59;;;;;;;28.53;22.80;;;10.10;1.00;;;;;;5047611;28;20202;-62
2023/04/17 06:45:27;;;;;;;28.20;22.00;;;10.30;1.00;;;;;;5064046;28;20199;-59
2023/04/17 06:47:55;;;;;;;31.00;21.53;;;10.50;1.00;;;;;;5057073;28;20218;-59
2023/04/17 06:50:22;;;;;;;31.40;22.60;;;10.40;1.00;;;;;;5067240;28;20248;-59
2023/04/17 06:52:49;;;;;;;29.83;22.43;;;10.50;1.00;;;;;;5063493;28;20189;-59
2023/04/17 06:55:16;;;;;;;29.93;21.07;;;10.50;1.00;;;;;;5062642;28;20666;-59
2023/04/17 06:57:43;;;;;;;29.07;21.27;;;10.90;1.00;;;;;;5066694;28;20199;-64
2023/04/17 07:00:11;;;;;;;28.77;20.97;;;11.00;1.00;;;;;;5046491;28;20205;-64
2023/04/17 07:02:38;;;;;;;32.10;21.57;;;11.00;1.00;;;;;;5057805;28;20321;-63
2023/04/17 07:05:06;;;;;;;26.47;20.70;;;11.20;1.00;;;;;;5087874;28;20194;-64
2023/04/17 07:07:34;;;;;;;28.60;19.03;;;11.60;1.00;;;;;;5054757;28;20222;-63
2023/04/17 07:10:05;;;;;;;26.13;19.97;;;11.80;1.00;;;;;;5089076;28;20270;-67
2023/04/17 07:12:32;;;;;;;29.33;21.87;;;11.60;1.00;;;;;;5052677;28;20191;-62
2023/04/17 07:14:59;;;;;;;29.17;20.30;;;11.50;1.00;;;;;;5088659;28;20270;-63
2023/04/17 07:17:26;;;;;;;26.73;19.67;;;11.50;1.00;;;;;;5088096;28;20186;-64
2023/04/17 07:19:53;;;;;;;28.10;20.93;;;11.50;1.00;;;;;;5061978;28;20196;-63
2023/04/17 07:22:21;;;;;;;26.40;20.30;;;11.80;1.00;;;;;;5066366;28;20231;-64
2023/04/17 07:24:50;;;;;;;29.90;20.77;;;12.60;1.00;;;;;;5054047;28;20209;-63
2023/04/17 07:27:17;;;;;;;23.53;18.40;;;13.00;1.00;;;;;;5081992;28;20209;-66
2023/04/17 07:29:46;;;;;;;20.77;17.00;;;12.90;1.00;;;;;;5068068;28;20194;-64
2023/04/17 07:32:13;;;;;;;25.37;17.57;;;12.80;1.00;;;;;;5081716;28;20194;-66
2023/04/17 07:34:40;;;;;;;19.30;16.10;;;12.90;1.00;;;;;;5089218;28;20214;-64
2023/04/17 07:37:07;;;;;;;26.10;17.27;;;13.20;1.00;;;;;;5086492;28;20194;-63
2023/04/17 07:39:34;;;;;;;23.23;16.80;;;13.30;1.00;;;;;;5061240;28;20467;-64
2023/04/17 07:42:05;;;;;;;21.33;16.88;;;13.60;1.00;;;;;;5086821;28;20225;-65
2023/04/17 07:44:32;;;;;;;19.25;16.42;;;13.40;1.00;;;;;;5087729;28;20630;-62
2023/04/17 07:46:59;;;;;;;24.35;16.13;;;14.50;1.00;;;;;;5088763;28;20720;-64
2023/04/17 07:49:26;;;;;;;20.98;14.88;;;15.10;1.00;;;;;;5081169;28;20317;-65
2023/04/17 07:51:53;;;;;;;17.42;14.20;;;15.20;1.00;;;;;;5067065;28;20218;-64
2023/04/17 07:54:20;;;;;;;17.05;13.55;;;14.70;1.00;;;;;;5079636;28;20253;-64
2023/04/17 07:56:48;;;;;;;20.02;14.70;;;14.90;1.00;;;;;;5086615;28;20194;-64
2023/04/17 07:59:15;;;;;;;15.93;14.13;;;14.90;1.00;;;;;;5081122;28;20225;-64
2023/04/17 08:01:42;;;;;;;17.75;13.43;;;14.60;1.00;;;;;;5065391;28;20595;-62
2023/04/17 08:04:09;;;;;;;17.65;13.45;;;15.30;1.00;;;;;;5044056;28;20200;-65
2023/04/17 08:06:37;;;;;;;16.65;13.27;;;15.10;1.00;;;;;;5032647;28;20195;-66
2023/04/17 08:09:05;;;;;;;16.05;13.02;;;14.80;1.00;;;;;;5033386;28;20568;-64
2023/04/17 08:11:34;;;;;;;15.27;11.68;;;14.80;1.00;;;;;;5034054;28;20256;-67
2023/04/17 08:14:16;;;;;;;18.48;13.77;;;15.00;1.00;;;;;;5053041;28;20231;-65
2023/04/17 08:16:43;;;;;;;15.85;12.57;;;16.20;1.00;;;;;;5043837;28;20253;-65
2023/04/17 08:19:10;;;;;;;14.35;11.43;;;19.60;1.00;;;;;;5050776;28;20184;-66
2023/04/17 08:21:37;;;;;;;14.77;10.93;;;21.80;1.00;;;;;;5043624;28;20207;-66
2023/04/17 08:24:04;;;;;;;13.63;11.18;;;21.40;1.00;;;;;;5034002;28;20239;-66
2023/04/17 08:26:31;;;;;;;12.13;9.75;;;19.00;1.00;;;;;;5058351;28;20337;-64
2023/04/17 08:29:03;;;;;;;12.32;9.88;;;16.90;1.00;;;;;;5046155;28;20297;-66
2023/04/17 08:31:30;;;;;;;11.55;9.82;;;17.80;1.00;;;;;;5040668;28;20192;-61
2023/04/17 08:34:00;;;;;;;13.13;10.52;;;19.60;1.00;;;;;;5036714;28;20220;-58
2023/04/17 08:36:40;;;;;;;11.05;9.68;;;18.30;1.00;;;;;;5040571;28;20595;-60
2023/04/17 08:39:08;;;;;;;12.45;10.00;;;17.50;1.00;;;;;;5037912;28;20200;-59
2023/04/17 08:41:47;;;;;;;12.60;10.30;;;17.60;1.00;;;;;;5039737;28;20666;-61
2023/04/17 08:44:20;;;;;;;13.07;9.98;;;17.20;1.00;;;;;;5039078;28;20188;-61
2023/04/17 08:46:48;;;;;;;12.38;9.95;;;17.70;1.00;;;;;;5038962;28;20238;-66
2023/04/17 08:49:15;;;;;;;11.98;10.18;;;18.00;1.00;;;;;;5046785;28;20219;-66
2023/04/17 08:51:42;;;;;;;11.35;9.52;;;18.40;1.00;;;;;;5031920;28;20200;-66
2023/04/17 08:54:09;;;;;;;11.95;9.88;;;19.50;1.00;;;;;;5031351;28;21107;-66
2023/04/17 08:56:36;;;;;;;10.52;9.43;;;18.90;1.00;;;;;;5052294;28;20203;-66
2023/04/17 08:59:03;;;;;;;11.93;9.93;;;18.40;1.00;;;;;;5053170;28;20643;-67
2023/04/17 09:01:33;;;;;;;11.45;9.30;;;18.70;1.00;;;;;;5039912;28;20279;-67
2023/04/17 09:04:00;;;;;;;14.73;11.20;;;18.80;1.00;;;;;;5059137;28;20235;-67
2023/04/17 09:06:28;;;;;;;9.68;8.68;;;21.30;1.00;;;;;;5057198;28;20253;-66
2023/04/17 09:08:59;;;;;;;8.80;7.90;;;24.50;1.00;;;;;;5035627;28;20345;-65
2023/04/17 09:11:27;;;;;;;11.90;9.30;;;24.00;1.00;;;;;;5068151;28;20201;-66
2023/04/17 09:13:54;;;;;;;10.27;9.27;;;21.50;1.00;;;;;;5068144;28;20198;-66
2023/04/17 09:16:23;;;;;;;10.95;8.10;;;20.20;1.00;;;;;;5052737;28;20206;-66
2023/04/17 09:18:50;;;;;;;9.48;8.48;;;19.70;1.00;;;;;;5061281;28;20713;-65
2023/04/17 09:21:17;;;;;;;9.80;8.38;;;18.80;1.00;;;;;;5058980;28;20202;-66
2023/04/17 09:23:54;;;;;;;10.73;9.00;;;18.30;1.00;;;;;;5059397;28;20896;-65
2023/04/17 09:26:32;;;;;;;14.13;9.13;;;18.30;1.00;;;;;;5054030;28;20200;-65
2023/04/17 09:29:06;;;;;;;9.52;8.45;;;18.10;1.00;;;;;;5062475;28;20309;-66
2023/04/17 09:31:34;;;;;;;11.00;8.95;;;17.70;1.00;;;;;;5065693;28;20205;-67
2023/04/17 09:34:07;;;;;;;11.32;9.20;;;17.40;1.00;;;;;;5058062;28;20191;-66
2023/04/17 09:36:37;;;;;;;12.20;8.77;;;17.10;1.00;;;;;;5057173;28;20294;-66
2023/04/17 09:39:15;;;;;;;11.65;9.07;;;16.90;1.00;;;;;;5056878;28;20194;-67
2023/04/17 09:41:42;;;;;;;11.65;9.70;;;16.60;1.00;;;;;;5061673;28;20592;-67
2023/04/17 09:44:11;;;;;;;11.10;9.02;;;16.80;1.00;;;;;;5062846;28;20249;-67
2023/04/17 09:46:44;;;;;;;10.82;8.88;;;18.00;1.00;;;;;;5059972;28;20243;-64
2023/04/17 09:49:32;;;;;;;11.73;9.25;;;18.00;1.00;;;;;;5056194;28;20222;-67
2023/04/17 09:52:00;;;;;;;11.90;9.27;;;17.90;1.00;;;;;;5059658;28;20210;-65
2023/04/17 09:54:30;;;;;;;11.43;8.93;;;18.60;1.00;;;;;;5051366;28;20206;-65
2023/04/17 09:57:01;;;;;;;11.13;9.50;;;17.40;1.00;;;;;;5068009;28;20212;-65
2023/04/17 09:59:29;;;;;;;11.95;9.27;;;18.20;1.00;;;;;;5056367;28;20183;-64
2023/04/17 10:01:57;;;;;;;11.35;9.25;;;19.10;1.00;;;;;;5067886;28;20211;-65
2023/04/17 10:04:24;;;;;;;12.05;9.13;;;19.50;1.00;;;;;;5058952;28;20289;-67
2023/04/17 10:06:51;;;;;;;14.43;9.35;;;19.00;1.00;;;;;;5059900;28;20330;-66
2023/04/17 10:09:18;;;;;;;10.13;9.07;;;18.20;1.00;;;;;;5075230;28;20626;-65
2023/04/17 10:11:46;;;;;;;12.38;9.70;;;18.00;1.00;;;;;;5059066;28;20271;-65
2023/04/17 10:14:29;;;;;;;11.77;10.00;;;18.50;1.00;;;;;;5062477;28;20202;-65
2023/04/17 10:16:56;;;;;;;14.80;9.93;;;18.60;1.00;;;;;;5060018;28;20235;-64
2023/04/17 10:19:32;;;;;;;11.82;9.52;;;19.10;1.00;;;;;;5073810;28;20209;-65
2023/04/17 10:22:17;;;;;;;11.88;9.25;;;19.80;1.00;;;;;;5063047;28;20186;-66
2023/04/17 10:24:50;;;;;;;12.77;9.63;;;18.90;1.00;;;;;;5081577;28;20281;-65
2023/04/17 10:27:23;;;;;;;9.57;8.57;;;20.40;1.00;;;;;;5076126;28;20243;-67
2023/04/17 10:30:01;;;;;;;10.00;8.35;;;21.40;1.00;;;;;;5077538;28;20195;-65
2023/04/17 10:32:30;;;;;;;15.75;9.50;;;22.00;1.00;;;;;;5084422;28;20190;-66
2023/04/17 10:35:21;;;;;;;10.60;8.55;;;21.40;1.00;;;;;;5064291;28;20827;-65
2023/04/17 10:37:51;;;;;;;10.68;8.82;;;20.00;1.00;;;;;;5064664;28;20647;-65
2023/04/17 10:40:21;;;;;;;10.85;7.65;;;18.60;1.00;;;;;;5045689;28;20410;-63
2023/04/17 10:43:19;;;;;;;9.80;8.15;;;19.10;1.00;;;;;;5066749;28;20190;-63
2023/04/17 10:46:03;;;;;;;13.05;9.40;;;20.30;1.00;;;;;;5068608;28;20463;-65
2023/04/17 10:48:41;;;;;;;10.98;8.45;;;20.70;1.00;;;;;;5082050;28;20210;-66
2023/04/17 10:51:20;;;;;;;12.27;8.00;;;21.00;1.00;;;;;;5081860;28;20222;-66
2023/04/17 10:53:48;;;;;;;9.25;7.97;;;21.10;1.00;;;;;;5082375;28;20186;-65
2023/04/17 10:56:26;;;;;;;10.43;8.15;;;21.20;1.00;;;;;;5081659;28;20204;-66
2023/04/17 10:59:10;;;;;;;10.80;8.43;;;20.90;1.00;;;;;;5081583;28;20271;-65
2023/04/17 11:01:47;;;;;;;10.27;7.88;;;21.00;1.00;;;;;;5081515;28;20282;-65
2023/04/17 11:04:26;;;;;;;10.35;7.70;;;22.30;1.00;;;;;;5048316;28;20194;-65
2023/04/17 11:06:54;;;;;;;12.82;7.50;;;20.50;1.00;;;;;;5056602;28;20660;-65
2023/04/17 11:09:23;;;;;;;12.90;7.57;;;19.70;1.00;;;;;;5062359;28;20264;-65
2023/04/17 11:11:50;;;;;;;10.27;8.05;;;19.90;1.00;;;;;;5080670;28;20191;-65
2023/04/17 11:14:20;;;;;;;8.48;7.30;;;20.90;1.00;;;;;;5063821;28;20194;-65
2023/04/17 11:16:49;;;;;;;11.10;7.43;;;21.70;1.00;;;;;;5062039;28;20199;-65
2023/04/17 11:19:18;;;;;;;8.68;7.30;;;23.10;1.00;;;;;;5045948;28;20618;-67
2023/04/17 11:21:47;;;;;;;10.73;8.05;;;22.40;1.00;;;;;;5062229;28;20206;-65
2023/04/17 11:24:28;;;;;;;10.70;8.65;;;20.50;1.00;;;;;;5077908;28;20195;-65
2023/04/17 11:26:58;;;;;;;13.77;8.88;;;20.80;1.00;;;;;;5060510;28;20919;-64
2023/04/17 11:29:26;;;;;;;10.13;7.90;;;22.20;1.00;;;;;;5060958;28;20758;-66
2023/04/17 11:31:55;;;;;;;11.98;8.38;;;23.60;1.00;;;;;;5075819;28;20228;-65
2023/04/17 11:34:25;;;;;;;10.57;9.00;;;24.30;1.00;;;;;;5073308;28;20332;-65
2023/04/17 11:36:58;;;;;;;10.23;9.13;;;23.80;1.00;;;;;;5074634;28;20278;-65
2023/04/17 11:39:28;;;;;;;12.90;8.90;;;22.20;1.00;;;;;;5075315;28;20252;-66
2023/04/17 11:41:58;;;;;;;12.38;8.48;;;21.60;1.00;;;;;;5063884;28;20195;-65
2023/04/17 11:44:25;;;;;;;12.45;8.48;;;21.00;1.00;;;;;;5059814;28;20851;-66
2023/04/17 11:47:00;;;;;;;12.82;8.60;;;20.40;1.00;;;;;;5065149;28;20198;-63
2023/04/17 11:49:31;;;;;;;11.93;8.60;;;19.00;1.00;;;;;;5082610;28;21704;-65
2023/04/17 11:52:00;;;;;;;10.98;9.27;;;19.20;1.00;;;;;;5065202;28;20195;-64
2023/04/17 11:54:34;;;;;;;10.85;8.85;;;19.70;1.00;;;;;;5082675;28;20673;-67
2023/04/17 11:57:06;;;;;;;10.35;8.20;;;19.90;1.00;;;;;;5054502;28;20209;-65
2023/04/17 11:59:36;;;;;;;10.50;8.18;;;18.90;1.00;;;;;;5061993;28;20202;-65
2023/04/17 12:02:05;;;;;;;10.90;8.55;;;18.50;1.00;;;;;;5061578;28;20349;-65
2023/04/17 12:04:36;;;;;;;10.02;8.68;;;19.30;1.00;;;;;;5078236;28;20240;-65
2023/04/17 12:07:06;;;;;;;11.40;8.50;;;20.90;1.00;;;;;;5074525;28;20284;-65
2023/04/17 12:09:33;;;;;;;12.88;8.23;;;20.40;1.00;;;;;;5046105;28;20236;-65
2023/04/17 12:12:05;;;;;;;13.68;9.10;;;19.10;1.00;;;;;;5075214;28;20191;-65
2023/04/17 12:14:32;;;;;;;10.02;8.23;;;18.70;1.00;;;;;;5057487;28;20544;-64
2023/04/17 12:17:00;;;;;;;13.73;8.07;;;18.00;1.00;;;;;;5062155;28;20646;-67
2023/04/17 12:19:28;;;;;;;11.35;7.68;;;18.30;1.00;;;;;;5072435;28;20213;-65
2023/04/17 12:21:56;;;;;;;12.20;7.53;;;18.60;1.00;;;;;;5077583;28;20691;-67
2023/04/17 12:24:23;;;;;;;13.25;7.63;;;18.90;1.00;;;;;;5078082;28;20205;-65
2023/04/17 12:26:51;;;;;;;9.27;7.60;;;19.60;1.00;;;;;;5077432;28;20628;-64
2023/04/17 12:29:19;;;;;;;10.50;9.20;;;19.80;1.00;;;;;;5063466;28;20225;-66
2023/04/17 12:32:06;;;;;;;10.85;8.93;;;18.30;1.00;;;;;;5080720;28;20809;-64
2023/04/17 12:34:33;;;;;;;10.57;8.63;;;17.50;1.00;;;;;;5060133;28;20205;-65
2023/04/17 12:37:00;;;;;;;17.20;9.32;;;17.50;1.00;;;;;;5060290;28;20560;-65
2023/04/17 12:39:27;;;;;;;14.63;9.55;;;17.70;1.00;;;;;;5057323;28;20202;-65
2023/04/17 12:41:55;;;;;;;12.82;9.02;;;18.10;1.00;;;;;;5074894;28;20274;-66
2023/04/17 12:44:22;;;;;;;12.45;9.45;;;17.20;1.00;;;;;;5078707;28;20198;-65
2023/04/17 12:46:49;;;;;;;12.38;9.18;;;17.30;1.00;;;;;;5075668;28;20282;-65
2023/04/17 12:49:16;;;;;;;9.35;7.75;;;17.80;1.00;;;;;;5078886;28;20656;-66
2023/04/17 12:51:43;;;;;;;10.52;7.90;;;17.80;1.00;;;;;;5077535;28;20195;-65
2023/04/17 12:54:10;;;;;;;11.35;8.50;;;17.00;1.00;;;;;;5076142;28;20265;-66
2023/04/17 12:56:37;;;;;;;11.32;8.40;;;16.90;1.00;;;;;;5073708;28;20190;-65